createdAt,value
2024-03-12T00:00:30.546Z,12.17
2024-03-12T00:02:57.338Z,11.68
2024-03-12T00:05:24.175Z,14.13
2024-03-12T00:07:55.486Z,14.07
2024-03-12T00:10:22.239Z,15.70
2024-03-12T00:12:51.340Z,17.13
2024-03-12T00:15:19.578Z,18.33
2024-03-12T00:17:46.989Z,16.95
2024-03-12T00:20:18.648Z,20.17
2024-03-12T00:22:47.488Z,20.75
2024-03-12T00:25:20.518Z,21.50
2024-03-12T00:27:47.992Z,21.83
2024-03-12T00:30:16.401Z,20.77
2024-03-12T00:32:44.764Z,19.83
2024-03-12T00:35:14.325Z,21.13
2024-03-12T00:37:42.669Z,23.33
2024-03-12T00:40:13.942Z,22.98
2024-03-12T00:42:42.579Z,22.35
2024-03-12T00:45:13.191Z,16.80
2024-03-12T00:47:42.490Z,21.02
2024-03-12T00:50:13.296Z,19.23
2024-03-12T00:52:41.727Z,20.38
2024-03-12T00:55:11.936Z,20.88
2024-03-12T01:01:40.439Z,27.98
2024-03-12T01:04:07.742Z,28.63
2024-03-12T01:06:35.680Z,26.70
2024-03-12T01:09:04.598Z,24.70
2024-03-12T01:11:31.352Z,30.25
2024-03-12T01:13:59.534Z,37.50
2024-03-12T01:16:26.228Z,37.90
2024-03-12T01:18:53.082Z,37.42
2024-03-12T01:21:21.791Z,39.30
2024-03-12T01:23:50.237Z,36.67
2024-03-12T01:26:19.959Z,37.03
2024-03-12T01:28:47.304Z,36.75
2024-03-12T01:31:16.563Z,35.53
2024-03-12T01:33:43.381Z,36.60
2024-03-12T01:36:22.522Z,32.17
2024-03-12T01:38:55.955Z,37.42
2024-03-12T01:41:22.954Z,36.65
2024-03-12T01:44:00.790Z,34.65
2024-03-12T01:46:30.489Z,37.58
2024-03-12T01:49:00.000Z,40.60
2024-03-12T01:51:28.624Z,31.00
2024-03-12T01:53:57.873Z,32.08
2024-03-12T01:56:27.769Z,27.30
2024-03-12T01:58:55.127Z,32.17
2024-03-12T02:01:22.360Z,29.92
2024-03-12T02:03:53.166Z,34.72
2024-03-12T02:06:23.930Z,36.60
2024-03-12T02:08:51.853Z,35.90
2024-03-12T02:13:46.232Z,33.57
2024-03-12T02:16:13.800Z,38.83
2024-03-12T02:18:40.844Z,27.85
2024-03-12T02:21:07.831Z,38.77
2024-03-12T02:23:41.859Z,38.08
2024-03-12T02:26:10.824Z,37.85
2024-03-12T02:28:38.388Z,40.25
2024-03-12T02:31:07.170Z,35.78
2024-03-12T02:33:34.460Z,34.25
2024-03-12T02:36:01.337Z,42.60
2024-03-12T02:38:28.190Z,32.97
2024-03-12T02:40:55.217Z,38.00
2024-03-12T02:43:23.044Z,37.03
2024-03-12T02:48:17.971Z,41.78
2024-03-12T02:50:44.704Z,40.13
2024-03-12T02:53:12.226Z,39.58
2024-03-12T02:55:39.035Z,39.05
2024-03-12T02:58:06.048Z,36.90
2024-03-12T03:00:33.238Z,38.93
2024-03-12T03:03:00.160Z,41.17
2024-03-12T03:05:26.974Z,38.03
2024-03-12T03:07:53.726Z,37.92
2024-03-12T03:10:21.259Z,39.53
2024-03-12T03:12:48.267Z,40.22
2024-03-12T03:15:15.512Z,40.43
2024-03-12T03:17:44.531Z,39.28
2024-03-12T03:20:18.177Z,37.90
2024-03-12T03:22:46.750Z,38.60
2024-03-12T03:25:14.623Z,34.22
2024-03-12T03:27:42.047Z,32.95
2024-03-12T03:30:11.572Z,31.73
2024-03-12T03:32:38.496Z,29.60
2024-03-12T03:35:05.687Z,30.25
2024-03-12T03:37:36.512Z,30.42
2024-03-12T03:40:11.361Z,28.50
2024-03-12T03:42:39.689Z,27.08
2024-03-12T03:45:07.086Z,27.35
2024-03-12T03:47:36.635Z,24.83
2024-03-12T03:50:05.236Z,21.65
2024-03-12T03:52:32.098Z,22.05
2024-03-12T03:54:58.909Z,21.52
2024-03-12T03:57:25.687Z,18.70
2024-03-12T03:59:52.496Z,18.20
2024-03-12T04:02:19.897Z,19.23
2024-03-12T04:04:47.170Z,18.73
2024-03-12T04:07:14.044Z,16.40
2024-03-12T04:09:40.831Z,15.73
2024-03-12T04:12:07.864Z,15.43
2024-03-12T04:14:35.138Z,13.03
2024-03-12T04:17:05.705Z,11.43
2024-03-12T04:19:34.570Z,13.23
2024-03-12T04:22:01.386Z,15.70
2024-03-12T04:24:28.364Z,14.95
2024-03-12T04:26:55.855Z,12.27
2024-03-12T04:29:22.591Z,12.80
2024-03-12T04:31:49.462Z,12.27
2024-03-12T04:34:16.515Z,14.75
2024-03-12T04:36:43.983Z,15.53
2024-03-12T04:39:29.202Z,16.35
2024-03-12T04:41:56.087Z,19.77
2024-03-12T04:44:23.098Z,15.95
2024-03-12T04:46:49.925Z,16.37
2024-03-12T04:49:16.835Z,16.80
2024-03-12T04:51:45.994Z,17.92
2024-03-12T04:54:12.796Z,18.42
2024-03-12T04:56:39.556Z,18.63
2024-03-12T04:59:06.219Z,22.65
2024-03-12T05:01:33.235Z,21.55
2024-03-12T05:04:04.677Z,22.42
2024-03-12T05:06:38.955Z,24.42
2024-03-12T05:09:07.330Z,20.93
2024-03-12T05:11:34.870Z,24.17
2024-03-12T05:14:01.731Z,25.15
2024-03-12T05:16:29.222Z,21.63
2024-03-12T05:18:56.174Z,20.90
2024-03-12T05:21:23.092Z,26.77
2024-03-12T05:23:52.677Z,20.35
2024-03-12T05:26:19.619Z,24.77
2024-03-12T05:28:48.432Z,23.67
2024-03-12T05:31:31.072Z,24.67
2024-03-12T05:34:01.370Z,26.10
2024-03-12T05:36:32.183Z,14.25
2024-03-12T05:39:17.274Z,25.13
2024-03-12T05:42:02.487Z,22.65
2024-03-12T05:44:47.802Z,27.00
2024-03-12T05:47:33.321Z,24.77
2024-03-12T05:50:03.064Z,17.75
2024-03-12T05:52:30.301Z,25.80
2024-03-12T05:54:57.366Z,25.95
2024-03-12T05:57:24.115Z,19.20
2024-03-12T05:59:51.351Z,20.42
2024-03-12T06:02:18.252Z,28.42
2024-03-12T06:04:44.950Z,28.13
2024-03-12T06:07:13.887Z,25.00
2024-03-12T06:09:41.120Z,29.27
2024-03-12T06:12:11.093Z,31.85
2024-03-12T06:14:37.944Z,28.48
2024-03-12T06:17:04.783Z,27.98
2024-03-12T06:19:31.637Z,30.52
2024-03-12T06:21:58.468Z,28.63
2024-03-12T06:24:25.633Z,28.10
2024-03-12T06:26:55.484Z,28.58
2024-03-12T06:29:24.126Z,29.33
2024-03-12T06:34:19.236Z,25.65
2024-03-12T06:36:50.997Z,24.53
2024-03-12T06:39:19.264Z,27.85
2024-03-12T06:41:48.019Z,27.50
2024-03-12T06:44:17.140Z,29.08
2024-03-12T06:46:46.474Z,31.88
2024-03-12T06:49:13.889Z,29.92
2024-03-12T06:51:40.780Z,27.27
2024-03-12T06:54:08.569Z,29.50
2024-03-12T06:56:42.980Z,27.88
2024-03-12T06:59:12.985Z,23.48
2024-03-12T07:01:42.563Z,25.85
2024-03-12T07:04:10.877Z,27.45
2024-03-12T07:06:44.460Z,27.40
2024-03-12T07:09:16.752Z,29.45
2024-03-12T07:11:43.894Z,25.65
2024-03-12T07:14:29.134Z,24.70
2024-03-12T07:16:56.992Z,28.50
2024-03-12T07:19:27.376Z,26.13
2024-03-12T07:21:56.203Z,28.23
2024-03-12T07:24:23.532Z,27.85
2024-03-12T07:26:50.563Z,20.25
2024-03-12T07:33:40.594Z,19.33
2024-03-12T07:36:09.162Z,22.23
2024-03-12T07:38:35.933Z,25.83
2024-03-12T07:41:02.695Z,27.67
2024-03-12T07:43:29.705Z,20.02
2024-03-12T07:45:58.026Z,28.57
2024-03-12T07:48:24.894Z,23.60
2024-03-12T07:50:52.041Z,28.08
2024-03-12T07:53:20.298Z,27.03
2024-03-12T07:55:47.028Z,27.55
2024-03-12T07:58:14.169Z,27.58
2024-03-12T08:00:41.091Z,24.17
2024-03-12T08:03:08.982Z,24.75
2024-03-12T08:08:02.731Z,28.83
2024-03-12T08:10:30.266Z,28.70
2024-03-12T08:12:57.169Z,28.95
2024-03-12T08:15:24.697Z,30.48
2024-03-12T08:17:54.712Z,31.20
2024-03-12T08:20:24.033Z,30.77
2024-03-12T08:22:50.983Z,29.57
2024-03-12T08:25:21.646Z,30.27
2024-03-12T08:27:50.071Z,26.60
2024-03-12T08:30:17.889Z,29.35
2024-03-12T08:32:44.913Z,25.80
2024-03-12T08:35:14.678Z,30.47
2024-03-12T08:37:41.448Z,29.65
2024-03-12T08:40:09.354Z,31.83
2024-03-12T08:42:44.797Z,30.70
2024-03-12T08:45:19.900Z,31.17
2024-03-12T08:47:48.825Z,32.55
2024-03-12T08:50:16.360Z,32.70
2024-03-12T08:52:44.195Z,33.47
2024-03-12T08:55:11.230Z,26.40
2024-03-12T08:57:38.336Z,25.03
2024-03-12T09:00:12.745Z,30.50
2024-03-12T09:02:42.564Z,33.22
2024-03-12T09:05:10.984Z,27.48
2024-03-12T09:07:43.148Z,26.95
2024-03-12T09:10:14.498Z,26.67
2024-03-12T09:12:44.661Z,31.63
2024-03-12T09:15:11.759Z,24.55
2024-03-12T09:17:39.612Z,24.00
2024-03-12T09:22:41.049Z,27.77
2024-03-12T09:25:10.039Z,24.40
2024-03-12T09:27:37.605Z,26.48
2024-03-12T09:30:06.788Z,28.25
2024-03-12T09:32:35.129Z,26.25
2024-03-12T09:35:04.137Z,25.50
2024-03-12T09:37:31.028Z,27.58
2024-03-12T09:39:58.179Z,26.60
2024-03-12T09:42:27.526Z,24.27
2024-03-12T09:44:54.965Z,27.00
2024-03-12T09:47:22.048Z,25.08
2024-03-12T09:49:50.307Z,21.27
2024-03-12T09:52:17.506Z,25.58
2024-03-12T09:54:44.795Z,24.07
2024-03-12T09:57:14.855Z,23.35
2024-03-12T09:59:42.310Z,20.75
2024-03-12T10:02:10.755Z,23.98
2024-03-12T10:04:37.913Z,25.77
2024-03-12T10:07:05.776Z,20.73
2024-03-12T10:12:05.603Z,19.90
2024-03-12T10:14:35.377Z,22.17
2024-03-12T10:17:16.302Z,20.85
2024-03-12T10:19:50.422Z,20.00
2024-03-12T10:22:22.854Z,21.42
2024-03-12T10:24:50.354Z,18.90
2024-03-12T10:27:17.446Z,24.23
2024-03-12T10:29:44.246Z,24.60
2024-03-12T10:32:19.931Z,23.83
2024-03-12T10:34:48.287Z,24.42
2024-03-12T10:37:31.979Z,21.45
2024-03-12T10:40:21.591Z,22.15
2024-03-12T10:42:54.289Z,20.13
2024-03-12T10:45:23.036Z,21.38
2024-03-12T10:47:51.095Z,21.35
2024-03-12T10:50:18.788Z,21.83
2024-03-12T10:52:46.931Z,18.83
2024-03-12T10:55:22.529Z,19.60
2024-03-12T10:57:51.386Z,19.65
2024-03-12T11:00:28.001Z,21.58
2024-03-12T11:02:58.091Z,18.33
2024-03-12T11:05:29.233Z,21.13
2024-03-12T11:07:58.804Z,19.80
2024-03-12T11:10:27.905Z,21.50
2024-03-12T11:13:02.252Z,19.52
2024-03-12T11:15:30.073Z,20.98
2024-03-12T11:17:56.953Z,16.73
2024-03-12T11:20:28.271Z,22.57
2024-03-12T11:23:01.637Z,19.73
2024-03-12T11:25:34.160Z,20.17
2024-03-12T11:28:22.326Z,23.40
2024-03-12T11:31:09.887Z,20.77
2024-03-12T11:33:43.067Z,17.23
2024-03-12T11:36:10.980Z,23.20
2024-03-12T11:41:05.085Z,22.92
2024-03-12T11:43:39.734Z,23.83
2024-03-12T11:46:17.688Z,23.10
2024-03-12T11:48:46.747Z,23.27
2024-03-12T11:51:15.220Z,23.73
2024-03-12T11:53:49.142Z,25.70
2024-03-12T11:56:20.322Z,24.52
2024-03-12T11:59:02.811Z,24.65
2024-03-12T12:01:34.672Z,25.23
2024-03-12T12:04:06.830Z,25.92
2024-03-12T12:06:34.533Z,24.25
2024-03-12T12:09:12.493Z,25.33
2024-03-12T12:11:40.361Z,29.77
2024-03-12T12:16:38.265Z,23.85
2024-03-12T12:19:07.177Z,24.08
2024-03-12T12:21:37.963Z,24.85
2024-03-12T12:24:05.668Z,26.10
2024-03-12T12:26:35.564Z,22.88
2024-03-12T12:29:05.482Z,23.20
2024-03-12T12:31:37.845Z,24.85
2024-03-12T12:34:07.512Z,21.75
2024-03-12T12:36:40.266Z,21.63
2024-03-12T12:39:12.205Z,22.35
2024-03-12T12:41:44.823Z,23.88
2024-03-12T12:44:23.928Z,23.40
2024-03-12T12:46:53.823Z,23.58
2024-03-12T12:49:22.924Z,23.73
2024-03-12T12:51:51.789Z,23.42
2024-03-12T12:54:21.979Z,22.95
2024-03-12T12:56:52.973Z,23.63
2024-03-12T12:59:25.145Z,21.40
2024-03-12T13:01:52.368Z,22.77
2024-03-12T13:04:28.863Z,16.98
2024-03-12T13:06:58.462Z,22.52
2024-03-12T13:09:34.911Z,22.48
2024-03-12T13:12:03.368Z,23.67
2024-03-12T13:14:31.146Z,24.13
2024-03-12T13:19:29.587Z,17.95
2024-03-12T13:21:58.022Z,19.50
2024-03-12T13:24:25.336Z,21.95
2024-03-12T13:26:52.459Z,22.35
2024-03-12T13:29:20.311Z,21.03
2024-03-12T13:31:50.687Z,18.10
2024-03-12T13:34:18.518Z,18.58
2024-03-12T13:41:43.842Z,14.90
2024-03-12T13:44:10.965Z,21.17
2024-03-12T13:46:42.232Z,16.38
2024-03-12T13:49:15.916Z,19.95
2024-03-12T13:51:44.217Z,15.25
2024-03-12T13:54:11.772Z,21.05
2024-03-12T13:56:39.387Z,17.85
2024-03-12T13:59:06.473Z,18.10
2024-03-12T14:01:33.798Z,19.20
2024-03-12T14:04:01.567Z,19.67
2024-03-12T14:06:33.782Z,16.25
2024-03-12T14:09:01.113Z,14.40
2024-03-12T14:11:28.280Z,21.23
2024-03-12T14:13:57.240Z,20.67
2024-03-12T14:16:25.381Z,18.08
2024-03-12T14:18:54.108Z,20.23
2024-03-12T14:21:22.610Z,20.38
2024-03-12T14:23:50.338Z,22.38
2024-03-12T14:26:20.300Z,22.35
2024-03-12T14:28:47.715Z,22.88
2024-03-12T14:31:18.205Z,21.70
2024-03-12T14:33:45.187Z,22.33
2024-03-12T14:36:12.039Z,24.50
2024-03-12T14:38:39.206Z,25.00
2024-03-12T14:41:07.718Z,23.83
2024-03-12T14:43:37.528Z,25.20
2024-03-12T14:46:06.420Z,24.90
2024-03-12T14:48:33.529Z,24.23
2024-03-12T14:51:01.353Z,23.87
2024-03-12T14:55:56.098Z,22.35
2024-03-12T14:58:23.837Z,21.17
2024-03-12T15:00:51.483Z,22.73
2024-03-12T15:03:20.766Z,22.08
2024-03-12T15:05:55.770Z,21.02
2024-03-12T15:08:23.075Z,21.85
2024-03-12T15:10:50.885Z,20.90
2024-03-12T15:15:45.719Z,21.40
2024-03-12T15:20:43.387Z,21.90
2024-03-12T15:23:10.386Z,19.58
2024-03-12T15:25:37.378Z,23.30
2024-03-12T15:28:04.585Z,23.27
2024-03-12T15:30:32.141Z,21.87
2024-03-12T15:32:59.104Z,19.63
2024-03-12T15:35:26.653Z,25.10
2024-03-12T15:37:55.531Z,20.80
2024-03-12T15:40:24.091Z,23.15
2024-03-12T15:42:51.104Z,21.83
2024-03-12T15:45:18.062Z,24.47
2024-03-12T15:47:45.826Z,21.73
2024-03-12T15:52:45.707Z,22.35
2024-03-12T15:55:14.150Z,22.40
2024-03-12T15:57:42.152Z,60.25
2024-03-12T16:00:10.353Z,34.17
2024-03-12T16:02:37.536Z,22.40
2024-03-12T16:05:06.811Z,22.50
2024-03-12T16:07:36.767Z,23.17
2024-03-12T16:10:06.119Z,22.48
2024-03-12T16:12:33.373Z,23.92
2024-03-12T16:15:01.001Z,22.77
2024-03-12T16:17:31.605Z,23.05
2024-03-12T16:19:58.542Z,23.15
2024-03-12T16:22:25.368Z,41.35
2024-03-12T16:24:52.419Z,23.95
2024-03-12T16:27:19.490Z,24.60
2024-03-12T16:29:47.871Z,23.03
2024-03-12T16:32:14.828Z,22.73
2024-03-12T16:34:41.734Z,27.03
2024-03-12T16:37:10.122Z,32.67
2024-03-12T16:39:40.275Z,25.08
2024-03-12T16:42:08.069Z,22.00
2024-03-12T16:44:36.180Z,24.00
2024-03-12T16:47:06.451Z,23.02
2024-03-12T16:49:34.087Z,23.13
2024-03-12T16:52:02.642Z,23.95
2024-03-12T16:54:32.011Z,45.67
2024-03-12T16:57:00.106Z,23.65
2024-03-12T16:59:27.230Z,23.35
2024-03-12T17:01:54.523Z,24.77
2024-03-12T17:04:21.761Z,24.38
2024-03-12T17:06:51.640Z,23.70
2024-03-12T17:09:18.749Z,22.35
2024-03-12T17:11:45.846Z,48.50
2024-03-12T17:14:18.837Z,26.40
2024-03-12T17:16:58.396Z,24.63
2024-03-12T17:19:26.912Z,21.48
2024-03-12T17:21:54.665Z,22.73
2024-03-12T17:24:23.593Z,22.92
2024-03-12T17:26:51.084Z,23.55
2024-03-12T17:29:20.966Z,25.35
2024-03-12T17:31:48.749Z,23.08
2024-03-12T17:34:15.989Z,23.17
2024-03-12T17:36:46.740Z,22.85
2024-03-12T17:39:14.318Z,24.00
2024-03-12T17:41:41.402Z,23.38
2024-03-12T17:44:08.656Z,21.47
2024-03-12T17:46:46.998Z,21.65
2024-03-12T17:49:18.216Z,21.10
2024-03-12T17:51:48.385Z,21.20
2024-03-12T17:54:15.860Z,17.40
2024-03-12T17:56:48.389Z,18.27
2024-03-12T17:59:20.458Z,14.77
2024-03-12T18:01:48.648Z,15.82
2024-03-12T18:04:16.380Z,14.73
2024-03-12T18:06:45.517Z,14.82
2024-03-12T18:09:13.788Z,15.32
2024-03-12T18:11:44.016Z,14.70
2024-03-12T18:14:11.320Z,17.17
2024-03-12T18:16:39.362Z,18.63
2024-03-12T18:19:07.590Z,20.67
2024-03-12T18:21:34.852Z,20.35
2024-03-12T18:24:02.224Z,21.90
2024-03-12T18:26:29.144Z,21.02
2024-03-12T18:28:58.145Z,20.47
2024-03-12T18:31:25.138Z,19.58
2024-03-12T18:33:52.290Z,20.77
2024-03-12T18:36:19.836Z,21.03
2024-03-12T18:38:46.787Z,21.25
2024-03-12T18:41:15.393Z,22.90
2024-03-12T18:43:42.348Z,21.13
2024-03-12T18:46:09.757Z,17.80
2024-03-12T18:48:37.294Z,15.85
2024-03-12T18:51:06.212Z,14.30
2024-03-12T18:53:34.963Z,14.77
2024-03-12T18:58:40.717Z,14.40
2024-03-12T19:01:08.239Z,13.57
2024-03-12T19:03:49.296Z,20.80
2024-03-12T19:06:27.412Z,14.60
2024-03-12T19:08:55.173Z,13.35
2024-03-12T19:11:22.567Z,14.48
2024-03-12T19:13:50.175Z,15.40
2024-03-12T19:16:20.874Z,14.55
2024-03-12T19:18:51.572Z,15.43
2024-03-12T19:21:21.064Z,14.10
2024-03-12T19:23:50.013Z,15.05
2024-03-12T19:26:19.369Z,13.23
2024-03-12T19:28:47.059Z,13.05
2024-03-12T19:31:15.795Z,11.20
2024-03-12T19:33:45.402Z,11.13
2024-03-12T19:36:23.024Z,11.43
2024-03-12T19:38:50.170Z,10.88
2024-03-12T19:41:18.321Z,11.13
2024-03-12T19:43:45.602Z,12.77
2024-03-12T19:46:13.256Z,12.70
2024-03-12T19:48:40.492Z,12.55
2024-03-12T19:51:08.055Z,13.70
2024-03-12T19:53:35.663Z,13.77
2024-03-12T19:56:02.700Z,14.23
2024-03-12T19:58:30.920Z,16.03
2024-03-12T20:00:57.773Z,15.98
2024-03-12T20:03:27.212Z,13.82
2024-03-12T20:05:57.763Z,18.15
2024-03-12T20:08:24.715Z,15.73
2024-03-12T20:10:51.491Z,18.52
2024-03-12T20:13:18.614Z,18.45
2024-03-12T20:15:47.295Z,19.77
2024-03-12T20:18:15.218Z,21.08
2024-03-12T20:20:44.684Z,19.45
2024-03-12T20:23:12.351Z,20.75
2024-03-12T20:25:41.909Z,19.95
2024-03-12T20:28:11.416Z,21.10
2024-03-12T20:30:40.458Z,19.63
2024-03-12T20:33:10.044Z,19.27
2024-03-12T20:35:39.720Z,17.90
2024-03-12T20:38:10.383Z,18.42
2024-03-12T20:40:37.770Z,15.77
2024-03-12T20:43:07.454Z,16.55
2024-03-12T20:45:35.774Z,16.65
2024-03-12T20:48:02.962Z,16.13
2024-03-12T20:50:30.389Z,15.80
2024-03-12T20:52:57.349Z,16.35
2024-03-12T20:55:25.592Z,14.65
2024-03-12T20:57:53.642Z,12.63
2024-03-12T21:00:34.310Z,16.73
2024-03-12T21:03:01.326Z,16.30
2024-03-12T21:05:32.109Z,16.42
2024-03-12T21:07:58.984Z,16.42
2024-03-12T21:10:26.161Z,13.60
2024-03-12T21:12:54.023Z,15.15
2024-03-12T21:17:48.251Z,14.25
2024-03-12T21:20:30.607Z,14.45
2024-03-12T21:22:57.368Z,12.95
2024-03-12T21:25:24.325Z,13.32
2024-03-12T21:27:54.597Z,12.80
2024-03-12T21:30:25.262Z,11.45
2024-03-12T21:32:54.103Z,12.90
2024-03-12T21:35:21.144Z,11.65
2024-03-12T21:37:48.010Z,11.97
2024-03-12T21:40:14.999Z,11.02
2024-03-12T21:42:44.089Z,11.10
2024-03-12T21:45:11.640Z,11.52
2024-03-12T21:47:38.789Z,10.73
2024-03-12T21:50:15.694Z,11.13
2024-03-12T21:52:43.232Z,10.20
2024-03-12T21:55:12.400Z,9.43
2024-03-12T21:57:41.216Z,10.00
2024-03-12T22:00:20.538Z,10.32
2024-03-12T22:02:48.192Z,10.27
2024-03-12T22:05:17.477Z,11.87
2024-03-12T22:07:45.319Z,11.20
2024-03-12T22:10:13.893Z,10.57
2024-03-12T22:12:42.206Z,11.50
2024-03-12T22:15:13.100Z,12.25
2024-03-12T22:17:43.294Z,11.38
2024-03-12T22:20:10.696Z,12.18
2024-03-12T22:22:38.736Z,13.43
2024-03-12T22:25:05.998Z,12.43
2024-03-12T22:27:32.917Z,11.88
2024-03-12T22:30:00.535Z,12.40
2024-03-12T22:32:31.526Z,11.73
2024-03-12T22:35:01.121Z,13.43
2024-03-12T22:37:29.923Z,12.50
2024-03-12T22:39:58.199Z,12.02
2024-03-12T22:42:26.805Z,12.07
2024-03-12T22:44:54.710Z,13.13
2024-03-12T22:49:49.462Z,11.95
2024-03-12T22:52:16.431Z,11.03
2024-03-12T22:54:43.524Z,13.70
2024-03-12T22:57:10.967Z,13.23
2024-03-12T22:59:38.404Z,13.25
2024-03-12T23:02:06.490Z,14.00
2024-03-12T23:04:35.171Z,14.35
2024-03-12T23:07:02.299Z,13.82
2024-03-12T23:09:29.244Z,13.33
2024-03-12T23:11:58.897Z,13.93
2024-03-12T23:14:25.749Z,13.75
2024-03-12T23:16:53.400Z,13.60
2024-03-12T23:19:21.110Z,12.82
2024-03-12T23:21:48.585Z,12.70
2024-03-12T23:24:15.639Z,13.85
2024-03-12T23:26:43.877Z,13.67
2024-03-12T23:29:13.234Z,14.30
2024-03-12T23:31:40.003Z,13.55
2024-03-12T23:34:07.396Z,12.25
2024-03-12T23:36:34.873Z,11.75
2024-03-12T23:39:01.812Z,12.63
2024-03-12T23:41:31.367Z,14.43
2024-03-12T23:43:58.416Z,13.25
2024-03-12T23:46:26.342Z,13.30
2024-03-12T23:48:53.706Z,12.70
2024-03-12T23:51:20.750Z,14.43
2024-03-12T23:53:47.661Z,14.10
2024-03-12T23:56:14.520Z,13.07
2024-03-12T23:58:41.335Z,11.10
